Time;durP1;ratioP1;P1;durP2;ratioP2;P2;SDS_P1;SDS_P2;PMS_P1;PMS_P2;Temp;Humidity;BMP_temperature;BMP_pressure;BME280_temperature;BME280_humidity;BME280_pressure;Samples;Min_cycle;Max_cycle;Signal;HPM_P1;HPM_P2
2022/01/21 00:01:20;;;;;;;6.73;5.90;;;;;;;-0.97;74.42;102620.84;5051926;28;20487;-48
2022/01/21 00:03:49;;;;;;;10.07;6.30;;;;;;;-0.98;74.19;102611.28;5052405;28;20431;-45
2022/01/21 00:06:18;;;;;;;7.37;6.77;;;;;;;-1.01;73.29;102611.44;5052709;28;20435;-47
2022/01/21 00:08:48;;;;;;;6.50;6.17;;;;;;;-1.09;73.12;102609.22;5052511;28;20431;-46
2022/01/21 00:11:17;;;;;;;6.60;6.20;;;;;;;-1.15;72.92;102604.28;5051464;28;20479;-47
2022/01/21 00:13:45;;;;;;;6.83;6.33;;;;;;;-1.24;72.77;102597.75;5052355;28;20847;-45
2022/01/21 00:16:16;;;;;;;9.27;7.20;;;;;;;-1.31;72.29;102611.19;5052200;28;20442;-46
2022/01/21 00:18:52;;;;;;;6.60;6.07;;;;;;;-1.39;72.23;102601.09;5052403;28;20431;-44
2022/01/21 00:32:24;;;;;;;6.83;6.27;;;;;;;-1.68;71.86;102604.28;5051886;28;20471;-43
2022/01/21 00:34:52;;;;;;;7.33;6.60;;;;;;;-1.73;71.89;102595.78;5051861;28;20438;-49
2022/01/21 00:37:21;;;;;;;6.80;6.20;;;;;;;-1.78;71.63;102597.78;5052085;28;20423;-44
2022/01/21 00:39:53;;;;;;;6.63;6.13;;;;;;;-1.83;71.25;102587.56;5051457;28;20451;-43
2022/01/21 00:42:45;;;;;;;7.23;6.53;;;;;;;-1.86;71.72;102599.91;5051808;28;20419;-43
2022/01/21 00:45:15;;;;;;;6.40;5.87;;;;;;;-1.89;71.97;102595.69;5040754;28;20952;-43
2022/01/21 00:47:44;;;;;;;7.07;6.60;;;;;;;-1.92;71.95;102595.81;5051672;28;20804;-43
2022/01/21 00:50:13;;;;;;;7.97;7.17;;;;;;;-1.94;72.36;102599.44;5051303;28;20562;-43
2022/01/21 00:52:42;;;;;;;6.57;5.97;;;;;;;-1.95;72.27;102605.56;5051336;28;20993;-44
2022/01/21 00:55:11;;;;;;;7.37;6.80;;;;;;;-1.96;72.90;102603.88;5051851;28;20435;-43
2022/01/21 00:57:39;;;;;;;7.13;6.43;;;;;;;-1.97;73.62;102607.41;5051232;28;20419;-43
2022/01/21 01:00:10;;;;;;;7.47;6.70;;;;;;;-1.97;73.58;102608.25;5050664;28;20451;-46
2022/01/21 01:02:38;;;;;;;7.80;6.10;;;;;;;-1.95;74.00;102610.81;5051630;28;20431;-43
2022/01/21 01:05:08;;;;;;;7.03;6.10;;;;;;;-1.95;74.15;102616.88;5051712;28;20435;-43
2022/01/21 01:07:36;;;;;;;6.97;6.20;;;;;;;-1.96;74.36;102607.34;5051600;28;20437;-43
2022/01/21 01:10:13;;;;;;;7.00;6.60;;;;;;;-1.98;74.17;102606.56;5050285;28;20475;-43
2022/01/21 01:12:54;;;;;;;6.83;6.33;;;;;;;-2.01;73.80;102606.72;5051467;28;20485;-42
2022/01/21 01:20:52;;;;;;;7.10;6.20;;;;;;;-2.10;74.07;102593.22;5050674;28;20463;-43
2022/01/21 01:23:38;;;;;;;6.20;5.80;;;;;;;-2.13;74.31;102602.03;5051571;28;20424;-45
2022/01/21 01:28:52;;;;;;;7.63;6.77;;;;;;;-2.21;75.06;102595.47;5051396;28;20435;-43
2022/01/21 01:31:20;;;;;;;8.83;6.70;;;;;;;-2.21;75.36;102598.09;5050581;28;20980;-43
2022/01/21 01:33:48;;;;;;;7.73;6.23;;;;;;;-2.22;75.87;102589.38;5051190;28;20477;-43
2022/01/21 01:36:15;;;;;;;7.10;6.40;;;;;;;-2.22;76.04;102586.78;5051420;28;20435;-43
2022/01/21 01:39:06;;;;;;;8.83;6.93;;;;;;;-2.22;75.86;102594.63;5051152;28;20440;-44
2022/01/21 01:41:38;;;;;;;7.40;6.27;;;;;;;-2.22;76.60;102593.75;5050514;28;20460;-47
2022/01/21 01:49:46;;;;;;;7.90;7.30;;;;;;;-2.27;76.64;102597.41;5014647;28;20439;-45
2022/01/21 01:52:17;;;;;;;7.07;6.47;;;;;;;-2.28;76.44;102593.13;5050630;28;20482;-45
2022/01/21 01:54:48;;;;;;;8.80;6.77;;;;;;;-2.28;76.63;102589.66;5051341;28;20427;-43
2022/01/21 01:57:17;;;;;;;9.30;7.63;;;;;;;-2.30;76.67;102576.66;5051095;28;20423;-43
2022/01/21 01:59:45;;;;;;;11.80;6.33;;;;;;;-2.29;76.73;102582.72;5050587;28;20820;-43
2022/01/21 02:02:16;;;;;;;6.97;6.37;;;;;;;-2.32;77.00;102580.25;5050827;28;20432;-43
2022/01/21 02:04:46;;;;;;;10.90;6.17;;;;;;;-2.35;76.77;102581.25;5050931;28;20431;-46
2022/01/21 02:07:14;;;;;;;6.80;6.10;;;;;;;-2.37;76.82;102575.25;5051231;28;20808;-43
2022/01/21 02:09:43;;;;;;;6.90;5.57;;;;;;;-2.38;77.84;102570.09;5052494;28;20840;-45
2022/01/21 02:12:11;;;;;;;10.93;6.93;;;;;;;-2.39;78.02;102568.41;5054398;28;20573;-43
2022/01/21 02:14:50;;;;;;;7.43;5.93;;;;;;;-2.39;78.21;102565.81;5054607;28;20434;-43
2022/01/21 02:21:29;;;;;;;6.20;5.80;;;;;;;-2.37;78.31;102571.78;5054524;28;20431;-42
2022/01/21 02:22:58;;;;;;;5.90;5.60;;;;;;;-2.39;78.17;102556.16;5054299;28;20434;-45
2022/01/21 02:25:26;;;;;;;12.23;7.53;;;;;;;-2.41;78.43;102552.78;5054286;28;20748;-43
2022/01/21 02:27:57;;;;;;;7.10;6.40;;;;;;;-2.41;78.12;102550.19;5054266;28;20942;-43
2022/01/21 02:30:26;;;;;;;6.10;5.20;;;;;;;-2.42;78.61;102545.84;5053850;28;20463;-44
2022/01/21 02:32:55;;;;;;;7.80;6.03;;;;;;;-2.40;79.25;102551.88;5054076;28;20984;-45
2022/01/21 02:35:25;;;;;;;14.73;6.03;;;;;;;-2.38;79.59;102547.41;5054069;28;20435;-44
2022/01/21 02:37:52;;;;;;;7.27;5.60;;;;;;;-2.33;80.15;102539.41;5053987;28;20431;-45
2022/01/21 02:40:22;;;;;;;8.20;6.43;;;;;;;-2.30;80.51;102534.84;5053626;28;20472;-47
2022/01/21 02:42:50;;;;;;;8.07;5.43;;;;;;;-2.21;81.37;102537.97;5053324;28;20431;-45
2022/01/21 02:45:17;;;;;;;14.87;5.20;;;;;;;-2.10;82.62;102533.09;5045029;28;20437;-45
2022/01/21 02:47:46;;;;;;;10.13;4.93;;;;;;;-1.97;85.15;102526.38;5054139;28;20954;-44
2022/01/21 02:50:16;;;;;;;10.77;4.67;;;;;;;-1.81;89.01;102535.16;5053478;28;20497;-45
2022/01/21 02:52:55;;;;;;;10.60;5.20;;;;;;;-1.67;92.21;102530.94;5053677;28;20479;-44
2022/01/21 02:55:24;;;;;;;8.53;5.17;;;;;;;-1.52;93.37;102545.06;5054860;28;20442;-44
2022/01/21 02:57:52;;;;;;;11.10;5.30;;;;;;;-1.45;92.77;102553.44;5053902;28;20433;-46
2022/01/21 03:00:20;;;;;;;11.30;5.33;;;;;;;-1.38;92.48;102554.84;5053084;28;20471;-45
2022/01/21 03:02:47;;;;;;;10.20;4.87;;;;;;;-1.33;92.12;102560.69;5053599;28;20431;-45
2022/01/21 03:05:16;;;;;;;7.63;5.43;;;;;;;-1.25;92.44;102563.78;5053445;28;20522;-45
2022/01/21 03:07:45;;;;;;;8.80;4.70;;;;;;;-1.19;92.01;102560.84;5053572;28;20442;-45
2022/01/21 03:10:13;;;;;;;8.40;6.03;;;;;;;-1.12;92.65;102568.34;5052937;28;20467;-45
2022/01/21 03:12:43;;;;;;;13.30;4.37;;;;;;;-1.00;93.00;102573.88;5053170;28;20478;-49
2022/01/21 03:15:10;;;;;;;8.90;5.03;;;;;;;-0.85;92.27;102573.94;5053400;28;20541;-47
2022/01/21 03:17:38;;;;;;;5.80;5.27;;;;;;;-0.68;90.86;102571.28;5053370;28;20427;-47
2022/01/21 03:20:07;;;;;;;9.87;4.50;;;;;;;-0.56;89.31;102575.03;5052573;28;20455;-50
2022/01/21 03:22:36;;;;;;;9.60;5.40;;;;;;;-0.49;87.34;102567.72;5053303;28;20813;-47
2022/01/21 03:25:04;;;;;;;9.47;5.80;;;;;;;-0.46;86.50;102573.63;5053365;28;20441;-49
2022/01/21 03:27:32;;;;;;;11.10;5.30;;;;;;;-0.44;86.18;102578.78;5053190;28;20440;-49
2022/01/21 03:30:03;;;;;;;8.73;5.53;;;;;;;-0.44;85.45;102579.63;5052470;28;20940;-46
2022/01/21 03:32:31;;;;;;;5.30;5.00;;;;;;;-0.48;85.39;102572.03;5052886;28;20931;-45
2022/01/21 03:34:59;;;;;;;7.50;6.73;;;;;;;-0.51;85.46;102577.44;5053167;28;20442;-45
2022/01/21 03:37:27;;;;;;;6.57;5.83;;;;;;;-0.54;84.82;102580.22;5053161;28;20416;-50
2022/01/21 03:39:55;;;;;;;6.43;5.83;;;;;;;-0.57;85.20;102578.59;5052425;28;20451;-45
2022/01/21 03:42:23;;;;;;;8.13;5.00;;;;;;;-0.60;84.30;102592.69;5052598;28;20431;-50
2022/01/21 03:44:50;;;;;;;8.07;6.77;;;;;;;-0.63;84.19;102592.84;5043787;28;20435;-44
2022/01/21 03:47:19;;;;;;;8.10;5.63;;;;;;;-0.64;83.97;102592.94;5052339;28;20751;-45
2022/01/21 03:49:53;;;;;;;7.20;5.07;;;;;;;-0.67;83.87;102606.19;5052210;28;20451;-44
2022/01/21 03:52:21;;;;;;;9.77;5.40;;;;;;;-0.69;83.69;102601.03;5052547;28;20430;-50
2022/01/21 03:54:49;;;;;;;6.60;6.10;;;;;;;-0.68;83.90;102594.88;5052676;28;20481;-45
2022/01/21 03:57:17;;;;;;;13.40;5.67;;;;;;;-0.69;83.67;102598.41;5052859;28;20427;-46
2022/01/21 03:59:44;;;;;;;10.80;5.30;;;;;;;-0.67;83.93;102593.09;5052202;28;20795;-46
2022/01/21 04:02:12;;;;;;;13.10;6.63;;;;;;;-0.66;83.85;102595.63;5052454;28;20431;-48
2022/01/21 04:04:41;;;;;;;12.13;5.90;;;;;;;-0.66;83.41;102587.75;5052569;28;20807;-44
2022/01/21 04:07:08;;;;;;;13.90;6.10;;;;;;;-0.66;82.45;102587.75;5052484;28;20434;-45
2022/01/21 04:09:36;;;;;;;8.03;5.27;;;;;;;-0.65;82.35;102599.09;5051715;28;20463;-48
2022/01/21 04:12:05;;;;;;;9.70;5.50;;;;;;;-0.66;82.71;102600.88;5052058;28;20436;-49
2022/01/21 04:14:34;;;;;;;7.33;5.13;;;;;;;-0.67;82.90;102607.06;5052448;28;20489;-45
2022/01/21 04:17:01;;;;;;;13.27;6.40;;;;;;;-0.62;81.59;102610.28;5052336;28;20798;-47
2022/01/21 04:19:29;;;;;;;6.03;5.43;;;;;;;-0.59;81.23;102607.50;5052398;28;20475;-47
2022/01/21 04:21:58;;;;;;;11.27;5.07;;;;;;;-0.59;80.68;102625.84;5051499;28;21086;-45
2022/01/21 04:24:26;;;;;;;9.67;7.20;;;;;;;-0.54;79.82;102622.16;5052092;28;20427;-43
2022/01/21 04:26:53;;;;;;;8.30;6.37;;;;;;;-0.53;78.92;102623.81;5052257;28;20450;-47
2022/01/21 04:29:21;;;;;;;5.93;5.37;;;;;;;-0.50;76.99;102624.50;5052032;28;20995;-43
2022/01/21 04:31:49;;;;;;;5.70;5.27;;;;;;;-0.46;76.19;102625.19;5050648;28;20813;-45
2022/01/21 04:34:16;;;;;;;7.40;5.47;;;;;;;-0.43;77.14;102631.13;5051952;28;20494;-44
2022/01/21 04:36:44;;;;;;;7.77;6.97;;;;;;;-0.42;76.28;102626.75;5051883;28;20435;-44
2022/01/21 04:39:19;;;;;;;12.83;7.10;;;;;;;-0.40;76.60;102628.34;5052035;28;20461;-44
2022/01/21 04:47:18;;;;;;;5.57;5.10;;;;;;;-0.38;75.18;102644.84;5050217;28;20438;-46
2022/01/21 04:49:45;;;;;;;7.07;4.93;;;;;;;-0.35;74.89;102649.91;5051488;28;20443;-44
2022/01/21 04:52:15;;;;;;;5.00;4.70;;;;;;;-0.35;75.45;102649.06;5051589;28;20519;-46
2022/01/21 04:54:44;;;;;;;6.40;5.97;;;;;;;-0.34;74.47;102654.25;5051702;28;20475;-47
2022/01/21 04:57:12;;;;;;;6.93;6.53;;;;;;;-0.34;75.17;102656.88;5051663;28;20431;-43
2022/01/21 04:59:40;;;;;;;9.97;8.43;;;;;;;-0.35;74.85;102652.53;5050973;28;20448;-44
2022/01/21 05:02:08;;;;;;;8.00;7.40;;;;;;;-0.35;74.39;102662.19;5051420;28;20442;-44
2022/01/21 05:04:37;;;;;;;8.03;7.33;;;;;;;-0.36;74.39;102657.88;5051478;28;20432;-46
2022/01/21 05:07:08;;;;;;;8.93;8.13;;;;;;;-0.37;74.21;102661.41;5051661;28;20438;-45
2022/01/21 05:09:36;;;;;;;7.90;7.20;;;;;;;-0.37;74.15;102657.03;5051269;28;20482;-46
2022/01/21 05:12:09;;;;;;;8.50;7.97;;;;;;;-0.36;74.20;102663.13;5051249;28;20427;-46
2022/01/21 05:14:47;;;;;;;7.83;7.10;;;;;;;-0.40;74.25;102657.19;5051710;28;20471;-44
2022/01/21 05:17:15;;;;;;;7.30;6.83;;;;;;;-0.42;73.95;102651.19;5051659;28;20850;-45
2022/01/21 05:19:43;;;;;;;16.77;6.93;;;;;;;-0.44;74.55;102641.69;5051025;28;20447;-45
2022/01/21 05:22:11;;;;;;;10.27;8.00;;;;;;;-0.46;75.44;102641.78;5051307;28;20458;-44
2022/01/21 05:24:38;;;;;;;7.87;7.17;;;;;;;-0.46;74.73;102654.03;5052065;28;20427;-42
2022/01/21 05:27:10;;;;;;;7.33;6.80;;;;;;;-0.48;74.14;102662.00;5052572;28;20436;-43
2022/01/21 05:29:38;;;;;;;7.60;7.30;;;;;;;-0.48;75.86;102661.13;5052113;28;20454;-42
2022/01/21 05:32:07;;;;;;;8.10;7.40;;;;;;;-0.49;76.68;102662.06;5052192;28;20424;-48
2022/01/21 05:34:35;;;;;;;7.90;7.50;;;;;;;-0.51;76.58;102671.78;5052713;28;20529;-45
2022/01/21 05:37:08;;;;;;;9.00;8.20;;;;;;;-0.53;77.15;102668.38;5052815;28;20470;-44
2022/01/21 05:39:35;;;;;;;8.37;7.67;;;;;;;-0.57;77.56;102663.28;5052156;28;20478;-46
2022/01/21 05:42:05;;;;;;;9.00;8.50;;;;;;;-0.59;75.91;102656.44;5052566;28;20431;-42
2022/01/21 05:47:19;;;;;;;10.37;9.57;;;;;;;-0.59;74.61;102656.44;5054551;28;20423;-46
2022/01/21 05:49:47;;;;;;;8.00;7.30;;;;;;;-0.61;74.48;102666.16;5054426;28;20508;-47
2022/01/21 05:52:18;;;;;;;8.17;7.67;;;;;;;-0.60;74.58;102666.06;5054959;28;20431;-47
2022/01/21 05:54:46;;;;;;;7.83;7.10;;;;;;;-0.61;73.64;102661.75;5055112;28;20471;-44
2022/01/21 05:57:17;;;;;;;8.17;7.57;;;;;;;-0.62;nan;102669.69;5054966;28;20423;-47
2022/01/21 05:59:49;;;;;;;13.97;8.03;;;;;;;-0.65;72.98;102667.22;5054298;28;20463;-44
2022/01/21 06:02:17;;;;;;;8.20;7.90;;;;;;;-0.66;73.62;102661.13;5054446;28;20430;-45
2022/01/21 06:04:49;;;;;;;8.93;8.50;;;;;;;-0.66;73.12;102662.94;5054821;28;20523;-45
2022/01/21 06:07:17;;;;;;;9.47;8.83;;;;;;;-0.68;73.59;102665.59;5054888;28;20433;-47
2022/01/21 06:09:45;;;;;;;8.87;8.27;;;;;;;-0.70;72.86;102670.09;5054092;28;20554;-45
2022/01/21 06:12:13;;;;;;;9.70;8.97;;;;;;;-0.69;73.99;102676.19;5054418;28;20431;-45
2022/01/21 06:14:41;;;;;;;9.80;9.20;;;;;;;-0.70;74.83;102683.19;5054600;28;20471;-46
2022/01/21 06:17:14;;;;;;;9.43;8.93;;;;;;;-0.70;74.42;102684.94;5054655;28;20427;-47
2022/01/21 06:19:42;;;;;;;9.13;8.73;;;;;;;-0.70;73.35;102677.94;5053951;28;20455;-44
2022/01/21 06:22:10;;;;;;;8.70;8.20;;;;;;;-0.69;74.48;102684.84;5054268;28;20435;-45
2022/01/21 06:24:37;;;;;;;9.30;8.57;;;;;;;-0.69;75.70;102684.03;5054437;28;20438;-46
2022/01/21 06:27:05;;;;;;;8.87;8.17;;;;;;;-0.68;75.15;102683.94;5054219;28;20435;-47
2022/01/21 06:29:33;;;;;;;9.70;9.10;;;;;;;-0.70;74.23;102682.34;5054386;28;20458;-47
2022/01/21 06:32:00;;;;;;;9.67;8.93;;;;;;;-0.70;73.94;102691.03;5054063;28;20440;-50
2022/01/21 06:34:30;;;;;;;9.77;8.87;;;;;;;-0.70;74.74;102690.19;5054278;28;20480;-44
2022/01/21 06:36:58;;;;;;;14.10;8.33;;;;;;;-0.70;74.08;102693.66;5054330;28;20437;-46
2022/01/21 06:39:25;;;;;;;7.70;7.50;;;;;;;-0.73;75.28;102690.34;5054165;28;20451;-48
2022/01/21 06:41:53;;;;;;;8.17;7.77;;;;;;;-0.76;74.97;102696.59;5051808;28;20460;-48
2022/01/21 06:44:21;;;;;;;8.00;7.60;;;;;;;-0.78;74.90;102679.25;5048718;28;20429;-45
2022/01/21 06:46:48;;;;;;;10.03;8.80;;;;;;;-0.82;74.41;102686.41;5049395;28;20436;-51
2022/01/21 06:49:16;;;;;;;8.53;8.00;;;;;;;-0.82;75.24;102683.78;5053916;28;20871;-47
2022/01/21 06:51:45;;;;;;;8.80;8.20;;;;;;;-0.84;76.12;102690.91;5052807;28;20463;-48
2022/01/21 06:54:13;;;;;;;8.17;7.40;;;;;;;-0.85;75.66;102701.44;5038796;28;20986;-45
2022/01/21 06:56:41;;;;;;;8.50;7.90;;;;;;;-0.90;75.64;102703.44;5011219;28;20547;-48
2022/01/21 06:59:09;;;;;;;8.90;8.30;;;;;;;-0.92;76.09;102706.13;5012719;28;20468;-49
2022/01/21 07:01:36;;;;;;;9.37;8.80;;;;;;;-0.94;76.88;102707.13;5011782;28;20469;-48
2022/01/21 07:04:05;;;;;;;9.03;8.53;;;;;;;-0.97;76.17;102713.34;5023356;28;20428;-45
2022/01/21 07:06:32;;;;;;;8.87;8.17;;;;;;;-0.97;76.35;102704.66;5052103;28;20481;-47
2022/01/21 07:09:01;;;;;;;8.17;7.77;;;;;;;-1.00;75.74;102710.88;5052216;28;20455;-45
2022/01/21 07:11:29;;;;;;;9.53;8.73;;;;;;;-1.01;74.69;102709.19;5051541;28;20464;-46
2022/01/21 07:13:56;;;;;;;7.93;7.53;;;;;;;-1.00;75.56;102707.41;5035457;28;20523;-48
2022/01/21 07:16:24;;;;;;;8.07;7.43;;;;;;;-1.02;76.30;102714.50;5032074;28;20476;-46
2022/01/21 07:18:52;;;;;;;8.90;8.30;;;;;;;-1.06;77.13;102716.41;5033332;28;20530;-46
2022/01/21 07:21:19;;;;;;;8.97;8.40;;;;;;;-1.09;77.95;102718.34;5031159;28;20464;-47
2022/01/21 07:23:47;;;;;;;10.73;7.80;;;;;;;-1.10;78.47;102720.09;5031861;28;20792;-46
2022/01/21 07:26:16;;;;;;;8.63;8.03;;;;;;;-1.11;78.24;102719.25;5033427;28;20443;-45
2022/01/21 07:28:44;;;;;;;9.20;8.33;;;;;;;-1.11;78.30;102719.25;5051827;28;20436;-45
2022/01/21 07:31:11;;;;;;;7.30;6.70;;;;;;;-1.08;78.68;102727.91;5050962;28;20485;-45
2022/01/21 07:33:39;;;;;;;8.90;7.67;;;;;;;-1.08;78.64;102727.91;5051385;28;20482;-46
2022/01/21 07:36:07;;;;;;;6.87;6.50;;;;;;;-1.06;79.06;102726.88;5051091;28;21199;-45
2022/01/21 07:38:34;;;;;;;7.37;6.73;;;;;;;-1.05;79.03;102727.75;5051543;28;20920;-45
2022/01/21 07:41:02;;;;;;;6.83;6.50;;;;;;;-1.03;78.92;102731.97;5050069;28;20459;-44
2022/01/21 07:43:31;;;;;;;7.27;6.83;;;;;;;-1.01;78.65;102739.75;5049352;28;20435;-46
2022/01/21 07:45:59;;;;;;;6.23;5.93;;;;;;;-1.01;78.28;102735.38;5040700;28;20831;-44
2022/01/21 07:48:26;;;;;;;8.63;6.70;;;;;;;-1.01;78.02;102737.97;5051351;28;20945;-47
2022/01/21 07:50:54;;;;;;;7.73;7.23;;;;;;;-1.04;77.52;102732.91;5037898;28;20476;-45
2022/01/21 07:53:22;;;;;;;7.23;6.73;;;;;;;-1.06;77.13;102740.00;5031200;28;20437;-47
2022/01/21 07:55:50;;;;;;;7.83;6.90;;;;;;;-1.08;77.18;102735.75;5030146;28;20476;-45
2022/01/21 07:58:19;;;;;;;6.70;6.40;;;;;;;-1.13;76.81;102738.56;5031401;28;20455;-48
2022/01/21 08:00:48;;;;;;;8.37;7.33;;;;;;;-1.17;76.72;102731.81;5049437;28;20460;-48
2022/01/21 08:03:16;;;;;;;8.37;7.67;;;;;;;-1.17;77.17;102737.03;5049869;28;20432;-45
2022/01/21 08:05:46;;;;;;;6.90;6.40;;;;;;;-1.17;77.57;102739.66;5050454;28;20433;-44
2022/01/21 08:08:14;;;;;;;6.40;6.10;;;;;;;-1.16;77.05;102736.09;5050647;28;20441;-45
2022/01/21 08:10:41;;;;;;;7.70;6.73;;;;;;;-1.15;77.50;102736.03;5031132;28;21002;-44
2022/01/21 08:13:09;;;;;;;6.67;6.37;;;;;;;-1.13;77.15;102738.56;5040594;28;20454;-45
2022/01/21 08:15:36;;;;;;;6.93;6.63;;;;;;;-1.13;77.29;102738.56;5030883;28;20472;-51
2022/01/21 08:18:05;;;;;;;7.10;6.70;;;;;;;-1.11;77.99;102744.59;5030819;28;20436;-46
2022/01/21 08:20:33;;;;;;;7.20;6.80;;;;;;;-1.08;77.72;102746.22;5029533;28;20471;-45
2022/01/21 08:23:01;;;;;;;5.90;5.70;;;;;;;-1.05;77.95;102736.47;5031115;28;20462;-44
2022/01/21 08:25:29;;;;;;;7.10;6.80;;;;;;;-1.02;78.13;102745.94;5030313;28;20432;-45
2022/01/21 08:27:56;;;;;;;10.57;7.83;;;;;;;-0.98;78.32;102743.06;5030643;28;20444;-47
2022/01/21 08:30:24;;;;;;;8.43;8.13;;;;;;;-0.93;78.56;102748.09;5029553;28;20989;-45
2022/01/21 08:32:52;;;;;;;7.13;6.87;;;;;;;-0.89;78.54;102747.88;5030850;28;20463;-44
2022/01/21 08:35:21;;;;;;;7.67;7.07;;;;;;;-0.85;78.47;102754.66;5030299;28;20432;-46
2022/01/21 08:37:52;;;;;;;8.37;7.17;;;;;;;-0.80;78.06;102757.03;5030586;28;20934;-46
2022/01/21 08:40:20;;;;;;;7.83;7.27;;;;;;;-0.75;78.28;102763.78;5041255;28;20474;-42
2022/01/21 08:42:48;;;;;;;7.33;6.80;;;;;;;-0.70;78.47;102764.41;5036503;28;20436;-44
2022/01/21 08:45:16;;;;;;;7.53;7.23;;;;;;;-0.64;77.81;102764.09;5040713;28;20442;-44
2022/01/21 08:47:44;;;;;;;7.90;7.30;;;;;;;-0.58;77.66;102763.81;5050301;28;20432;-44
2022/01/21 08:50:14;;;;;;;8.20;7.73;;;;;;;-0.50;78.09;102766.03;5049570;28;20478;-45
2022/01/21 08:52:43;;;;;;;7.47;7.00;;;;;;;-0.42;77.87;102761.28;5050219;28;20427;-46
2022/01/21 08:55:14;;;;;;;11.53;7.60;;;;;;;-0.32;78.18;102764.25;5049854;28;20451;-44
2022/01/21 08:57:43;;;;;;;7.83;7.30;;;;;;;-0.22;78.59;102768.13;5050074;28;20559;-43
2022/01/21 09:00:15;;;;;;;6.93;6.63;;;;;;;-0.12;78.43;102758.88;5049179;28;20479;-50
2022/01/21 09:02:42;;;;;;;7.07;6.77;;;;;;;-0.02;77.79;102766.16;5050055;28;20794;-45
2022/01/21 09:05:11;;;;;;;7.50;7.10;;;;;;;0.09;77.89;102762.97;5049861;28;20804;-45
2022/01/21 09:07:39;;;;;;;7.00;6.80;;;;;;;0.21;77.55;102766.75;5050014;28;20833;-45
2022/01/21 09:10:09;;;;;;;7.37;6.87;;;;;;;0.31;77.53;102771.44;5049238;28;20469;-45
2022/01/21 09:12:37;;;;;;;7.10;6.70;;;;;;;0.44;77.33;102774.25;5049817;28;20427;-44
2022/01/21 09:15:07;;;;;;;7.07;6.67;;;;;;;0.55;77.52;102770.13;5049644;28;20442;-45
2022/01/21 09:17:36;;;;;;;6.53;6.17;;;;;;;0.70;77.42;102770.22;5050444;28;21009;-43
2022/01/21 09:20:05;;;;;;;12.30;6.80;;;;;;;0.79;76.68;102770.56;5053096;28;20459;-44
2022/01/21 09:22:33;;;;;;;7.33;6.70;;;;;;;0.91;76.61;102755.91;5054182;28;20438;-45
2022/01/21 09:25:00;;;;;;;8.23;6.70;;;;;;;1.03;76.72;102757.84;5053596;28;20945;-46
2022/01/21 09:27:29;;;;;;;7.30;6.63;;;;;;;1.13;76.17;102753.78;5054099;28;20925;-45
2022/01/21 09:29:57;;;;;;;6.90;6.43;;;;;;;1.21;75.83;102759.44;5053210;28;20467;-46
2022/01/21 09:32:25;;;;;;;6.93;6.53;;;;;;;1.30;75.97;102756.28;5053762;28;20427;-44
2022/01/21 09:34:52;;;;;;;8.43;7.83;;;;;;;1.37;75.11;102764.66;5041090;28;21068;-46
2022/01/21 09:37:20;;;;;;;7.40;7.00;;;;;;;1.47;75.61;102757.91;5034011;28;20478;-47
2022/01/21 09:39:48;;;;;;;7.87;7.50;;;;;;;1.59;75.68;102763.31;5033149;28;20560;-45
2022/01/21 09:42:15;;;;;;;10.57;7.53;;;;;;;1.64;74.80;102753.38;5036074;28;20429;-47
2022/01/21 09:44:45;;;;;;;8.37;7.57;;;;;;;1.71;75.48;102764.38;5040058;28;20462;-45
2022/01/21 09:47:16;;;;;;;12.87;7.53;;;;;;;1.81;75.76;102765.53;5052077;28;20420;-44
2022/01/21 09:49:44;;;;;;;7.67;7.00;;;;;;;1.89;75.54;102747.50;5053180;28;20462;-49
2022/01/21 09:52:14;;;;;;;12.37;7.90;;;;;;;2.00;76.21;102755.59;5053466;28;20441;-47
2022/01/21 09:54:45;;;;;;;9.90;8.73;;;;;;;2.08;76.08;102763.91;5053186;28;20439;-46
2022/01/21 09:57:19;;;;;;;7.20;6.80;;;;;;;2.17;76.52;102765.13;5053584;28;20563;-44
2022/01/21 09:59:49;;;;;;;8.00;7.50;;;;;;;2.27;76.81;102757.53;5052602;28;21150;-44
2022/01/21 10:02:19;;;;;;;8.83;7.97;;;;;;;2.33;76.43;102757.16;5053373;28;20428;-47
2022/01/21 10:04:49;;;;;;;8.30;7.33;;;;;;;2.45;76.39;102756.38;5053202;28;20796;-45
2022/01/21 10:07:19;;;;;;;12.73;7.43;;;;;;;2.55;76.12;102758.34;5053458;28;20925;-45
2022/01/21 10:09:48;;;;;;;8.60;7.33;;;;;;;2.64;75.91;102768.31;5052432;28;20459;-44
2022/01/21 10:12:17;;;;;;;7.90;7.30;;;;;;;2.75;76.16;102771.09;5052927;28;20439;-46
2022/01/21 10:14:45;;;;;;;8.93;8.17;;;;;;;2.82;76.05;102774.19;5052979;28;20424;-45
2022/01/21 10:17:14;;;;;;;10.43;8.23;;;;;;;2.87;76.10;102764.19;5043930;28;20478;-47
2022/01/21 10:19:45;;;;;;;8.50;7.80;;;;;;;2.95;75.83;102763.72;5032636;28;20451;-45
2022/01/21 10:22:17;;;;;;;8.30;7.50;;;;;;;2.98;75.51;102763.53;5032917;28;20432;-44
2022/01/21 10:24:53;;;;;;;8.03;7.30;;;;;;;3.05;76.12;102760.38;5040378;28;20431;-45
2022/01/21 10:27:24;;;;;;;7.73;7.27;;;;;;;3.09;76.60;102764.53;5043222;28;20436;-45
2022/01/21 10:29:53;;;;;;;8.27;7.30;;;;;;;3.16;76.78;102764.97;5031447;28;20444;-45
2022/01/21 10:32:34;;;;;;;9.30;8.40;;;;;;;3.20;76.89;102775.22;5022945;28;20433;-44
2022/01/21 10:35:24;;;;;;;8.67;7.03;;;;;;;3.25;76.83;102775.78;5032868;28;20552;-44
2022/01/21 10:37:51;;;;;;;8.23;7.40;;;;;;;3.36;77.02;102769.78;5048662;28;21014;-46
2022/01/21 10:40:21;;;;;;;8.07;7.37;;;;;;;3.51;77.11;102763.50;5052015;28;20473;-46
2022/01/21 10:42:49;;;;;;;8.10;7.70;;;;;;;3.67;77.55;102766.81;5051909;28;20445;-47
2022/01/21 10:45:17;;;;;;;12.40;7.20;;;;;;;3.79;77.48;102755.41;5042971;28;20439;-48
2022/01/21 10:47:50;;;;;;;11.00;9.00;;;;;;;3.90;76.83;102757.34;5052790;28;20430;-51
2022/01/21 10:50:20;;;;;;;7.80;7.20;;;;;;;3.98;76.42;102756.81;5034696;28;20463;-47
2022/01/21 10:52:51;;;;;;;7.83;7.10;;;;;;;3.89;76.33;102751.22;5040842;28;20428;-49
2022/01/21 10:55:30;;;;;;;9.50;6.87;;;;;;;3.95;77.56;102751.75;5031369;28;20456;-49
2022/01/21 10:58:06;;;;;;;9.40;7.40;;;;;;;4.01;77.29;102751.31;5031775;28;20583;-49
2022/01/21 11:00:34;;;;;;;7.17;6.50;;;;;;;4.08;77.85;102750.81;5031050;28;20490;-49
2022/01/21 11:03:11;;;;;;;8.60;7.73;;;;;;;4.14;78.56;102745.09;5041274;28;20777;-46
2022/01/21 11:05:43;;;;;;;8.27;7.10;;;;;;;4.19;78.29;102742.97;5051957;28;20435;-47
2022/01/21 11:08:12;;;;;;;9.50;7.00;;;;;;;4.32;78.82;102743.81;5052288;28;20519;-44
2022/01/21 11:10:43;;;;;;;12.53;6.37;;;;;;;4.40;79.26;102738.84;5051028;28;20467;-49
2022/01/21 11:13:33;;;;;;;7.03;5.60;;;;;;;4.52;78.73;102733.63;5042088;28;20433;-47
2022/01/21 11:16:15;;;;;;;6.93;6.30;;;;;;;4.61;79.21;102732.97;5031931;28;20444;-49
2022/01/21 11:19:09;;;;;;;11.37;6.50;;;;;;;4.71;79.84;102726.09;5033251;28;20479;-47
2022/01/21 11:21:45;;;;;;;7.60;6.47;;;;;;;4.64;78.86;102725.69;5043374;28;20464;-45
2022/01/21 11:24:15;;;;;;;6.23;5.63;;;;;;;4.58;79.35;102731.41;5050074;28;20955;-44
2022/01/21 11:26:43;;;;;;;13.37;6.40;;;;;;;4.56;80.03;102730.69;5051587;28;20800;-47
2022/01/21 11:29:12;;;;;;;12.80;6.50;;;;;;;4.58;80.44;102731.41;5051620;28;20451;-45
2022/01/21 11:31:40;;;;;;;13.47;6.03;;;;;;;4.63;81.19;102731.09;5050945;28;20465;-49
2022/01/21 11:34:12;;;;;;;9.53;6.30;;;;;;;4.71;81.32;102736.66;5051355;28;20454;-47
2022/01/21 11:36:40;;;;;;;17.90;6.07;;;;;;;4.78;81.53;102738.75;5049363;28;20439;-48
2022/01/21 11:39:08;;;;;;;9.97;5.57;;;;;;;4.89;81.51;102724.75;5051417;28;20467;-45
2022/01/21 11:41:36;;;;;;;11.47;6.47;;;;;;;4.96;80.72;102723.34;5050494;28;20463;-44
2022/01/21 11:44:06;;;;;;;12.23;5.90;;;;;;;5.05;80.53;102713.91;5048034;28;20955;-45
2022/01/21 11:46:48;;;;;;;8.87;5.80;;;;;;;5.12;80.17;102704.56;5040824;28;20526;-45
2022/01/21 11:49:21;;;;;;;8.43;7.00;;;;;;;5.19;79.78;102703.16;5031617;28;20487;-45
2022/01/21 11:51:49;;;;;;;12.20;7.27;;;;;;;5.24;79.52;102701.84;5030150;28;21038;-47
2022/01/21 11:54:18;;;;;;;9.97;6.30;;;;;;;5.25;79.50;102702.69;5049864;28;20431;-50
2022/01/21 11:56:47;;;;;;;18.13;6.50;;;;;;;5.29;79.85;102704.13;5050893;28;20435;-46
2022/01/21 11:59:25;;;;;;;7.63;6.83;;;;;;;5.32;79.77;102706.56;5051345;28;20470;-47
2022/01/21 12:01:54;;;;;;;13.23;6.63;;;;;;;5.35;79.32;102703.69;5050480;28;20467;-49
2022/01/21 12:04:45;;;;;;;9.00;6.60;;;;;;;5.38;79.87;102698.16;5050850;28;20884;-46
2022/01/21 12:07:55;;;;;;;11.23;6.10;;;;;;;5.44;80.05;102700.34;5050546;28;20443;-45
2022/01/21 12:10:32;;;;;;;9.60;6.70;;;;;;;5.50;80.50;102689.28;5033828;28;20468;-47
2022/01/21 12:13:04;;;;;;;9.27;6.50;;;;;;;5.43;80.51;102681.00;5035881;28;20421;-46
2022/01/21 12:15:53;;;;;;;7.63;6.60;;;;;;;5.46;81.07;102680.78;5030939;28;20432;-46